sensor_id;sensor_type;location;lat;lon;timestamp;P1;durP1;ratioP1;P2;durP2;ratioP2
64615;SDS011;51027;42.162;24.754;2023-02-01T00:00:45;11.02;;;3.80;;
64615;SDS011;51027;42.162;24.754;2023-02-01T00:03:10;12.05;;;4.18;;
64615;SDS011;51027;42.162;24.754;2023-02-01T00:05:37;9.88;;;3.80;;
64615;SDS011;51027;42.162;24.754;2023-02-01T00:08:03;11.18;;;4.60;;
64615;SDS011;51027;42.162;24.754;2023-02-01T00:10:29;11.00;;;4.10;;
64615;SDS011;51027;42.162;24.754;2023-02-01T00:12:55;5.78;;;2.70;;
64615;SDS011;51027;42.162;24.754;2023-02-01T00:15:20;16.58;;;5.60;;
64615;SDS011;51027;42.162;24.754;2023-02-01T00:17:46;7.53;;;3.05;;
64615;SDS011;51027;42.162;24.754;2023-02-01T00:20:11;11.65;;;3.80;;
64615;SDS011;51027;42.162;24.754;2023-02-01T00:22:36;14.25;;;4.47;;
64615;SDS011;51027;42.162;24.754;2023-02-01T00:25:02;12.60;;;4.00;;
64615;SDS011;51027;42.162;24.754;2023-02-01T00:27:28;12.52;;;4.20;;
64615;SDS011;51027;42.162;24.754;2023-02-01T00:29:54;12.32;;;4.20;;
64615;SDS011;51027;42.162;24.754;2023-02-01T00:32:20;7.78;;;2.80;;
64615;SDS011;51027;42.162;24.754;2023-02-01T00:34:46;10.50;;;3.45;;
64615;SDS011;51027;42.162;24.754;2023-02-01T00:37:11;11.98;;;4.10;;
64615;SDS011;51027;42.162;24.754;2023-02-01T00:39:37;12.07;;;3.70;;
64615;SDS011;51027;42.162;24.754;2023-02-01T00:42:02;9.80;;;3.35;;
64615;SDS011;51027;42.162;24.754;2023-02-01T00:44:28;12.30;;;4.03;;
64615;SDS011;51027;42.162;24.754;2023-02-01T00:46:58;13.30;;;3.90;;
64615;SDS011;51027;42.162;24.754;2023-02-01T00:49:24;10.30;;;3.25;;
64615;SDS011;51027;42.162;24.754;2023-02-01T00:51:49;9.18;;;3.15;;
64615;SDS011;51027;42.162;24.754;2023-02-01T00:54:15;11.18;;;4.18;;
64615;SDS011;51027;42.162;24.754;2023-02-01T00:56:40;12.25;;;3.83;;
64615;SDS011;51027;42.162;24.754;2023-02-01T00:59:06;7.65;;;3.78;;
64615;SDS011;51027;42.162;24.754;2023-02-01T01:01:31;11.98;;;3.53;;
64615;SDS011;51027;42.162;24.754;2023-02-01T01:03:57;11.38;;;3.60;;
64615;SDS011;51027;42.162;24.754;2023-02-01T01:06:25;11.60;;;4.05;;
64615;SDS011;51027;42.162;24.754;2023-02-01T01:08:53;11.73;;;3.70;;
64615;SDS011;51027;42.162;24.754;2023-02-01T01:11:21;11.43;;;3.55;;
64615;SDS011;51027;42.162;24.754;2023-02-01T01:13:50;9.88;;;3.55;;
64615;SDS011;51027;42.162;24.754;2023-02-01T01:16:17;8.27;;;3.20;;
64615;SDS011;51027;42.162;24.754;2023-02-01T01:18:43;10.18;;;4.00;;
64615;SDS011;51027;42.162;24.754;2023-02-01T01:21:09;9.18;;;3.20;;
64615;SDS011;51027;42.162;24.754;2023-02-01T01:23:38;12.80;;;3.83;;
64615;SDS011;51027;42.162;24.754;2023-02-01T01:26:12;12.35;;;3.83;;
64615;SDS011;51027;42.162;24.754;2023-02-01T01:28:40;10.48;;;3.33;;
64615;SDS011;51027;42.162;24.754;2023-02-01T01:31:12;9.20;;;3.40;;
64615;SDS011;51027;42.162;24.754;2023-02-01T01:33:38;8.95;;;3.75;;
64615;SDS011;51027;42.162;24.754;2023-02-01T01:36:05;13.63;;;4.25;;
64615;SDS011;51027;42.162;24.754;2023-02-01T01:38:31;11.02;;;4.00;;
64615;SDS011;51027;42.162;24.754;2023-02-01T01:40:56;10.65;;;3.53;;
64615;SDS011;51027;42.162;24.754;2023-02-01T01:43:22;11.27;;;4.00;;
64615;SDS011;51027;42.162;24.754;2023-02-01T01:45:48;10.55;;;3.90;;
64615;SDS011;51027;42.162;24.754;2023-02-01T01:48:25;11.70;;;3.95;;
64615;SDS011;51027;42.162;24.754;2023-02-01T01:53:20;11.60;;;4.10;;
64615;SDS011;51027;42.162;24.754;2023-02-01T01:55:51;11.18;;;3.97;;
64615;SDS011;51027;42.162;24.754;2023-02-01T01:58:20;11.75;;;3.50;;
64615;SDS011;51027;42.162;24.754;2023-02-01T02:00:48;12.50;;;4.28;;
64615;SDS011;51027;42.162;24.754;2023-02-01T02:03:15;9.95;;;3.53;;
64615;SDS011;51027;42.162;24.754;2023-02-01T02:05:41;11.25;;;3.85;;
64615;SDS011;51027;42.162;24.754;2023-02-01T02:08:07;11.13;;;3.75;;
64615;SDS011;51027;42.162;24.754;2023-02-01T02:10:32;10.10;;;3.45;;
64615;SDS011;51027;42.162;24.754;2023-02-01T02:13:16;14.70;;;5.10;;
64615;SDS011;51027;42.162;24.754;2023-02-01T02:15:45;10.05;;;3.67;;
64615;SDS011;51027;42.162;24.754;2023-02-01T02:18:44;11.00;;;3.58;;
64615;SDS011;51027;42.162;24.754;2023-02-01T02:27:09;12.50;;;4.28;;
64615;SDS011;51027;42.162;24.754;2023-02-01T02:35:38;11.70;;;4.07;;
64615;SDS011;51027;42.162;24.754;2023-02-01T02:44:17;10.20;;;3.75;;
64615;SDS011;51027;42.162;24.754;2023-02-01T02:47:11;13.90;;;3.90;;
64615;SDS011;51027;42.162;24.754;2023-02-01T02:52:53;13.10;;;4.15;;
64615;SDS011;51027;42.162;24.754;2023-02-01T02:55:44;8.48;;;3.20;;
64615;SDS011;51027;42.162;24.754;2023-02-01T02:58:10;11.98;;;3.88;;
64615;SDS011;51027;42.162;24.754;2023-02-01T03:00:56;10.45;;;4.28;;
64615;SDS011;51027;42.162;24.754;2023-02-01T03:03:41;12.90;;;3.80;;
64615;SDS011;51027;42.162;24.754;2023-02-01T03:06:33;12.65;;;3.95;;
64615;SDS011;51027;42.162;24.754;2023-02-01T03:08:59;11.05;;;4.10;;
64615;SDS011;51027;42.162;24.754;2023-02-01T03:11:29;14.07;;;3.85;;
64615;SDS011;51027;42.162;24.754;2023-02-01T03:14:17;9.75;;;3.65;;
64615;SDS011;51027;42.162;24.754;2023-02-01T03:16:47;11.00;;;3.90;;
64615;SDS011;51027;42.162;24.754;2023-02-01T03:22:03;11.98;;;3.63;;
64615;SDS011;51027;42.162;24.754;2023-02-01T03:24:38;13.63;;;4.10;;
64615;SDS011;51027;42.162;24.754;2023-02-01T03:30:02;11.40;;;3.97;;
64615;SDS011;51027;42.162;24.754;2023-02-01T03:32:33;8.02;;;2.75;;
64615;SDS011;51027;42.162;24.754;2023-02-01T03:35:21;11.00;;;4.03;;
64615;SDS011;51027;42.162;24.754;2023-02-01T03:37:52;12.50;;;4.63;;
64615;SDS011;51027;42.162;24.754;2023-02-01T03:40:22;11.88;;;4.20;;
64615;SDS011;51027;42.162;24.754;2023-02-01T03:42:49;13.48;;;3.90;;
64615;SDS011;51027;42.162;24.754;2023-02-01T03:47:52;12.32;;;4.28;;
64615;SDS011;51027;42.162;24.754;2023-02-01T03:50:21;9.45;;;3.33;;
64615;SDS011;51027;42.162;24.754;2023-02-01T03:55:28;9.80;;;3.92;;
64615;SDS011;51027;42.162;24.754;2023-02-01T03:57:57;14.23;;;4.47;;
64615;SDS011;51027;42.162;24.754;2023-02-01T04:00:27;10.93;;;3.63;;
64615;SDS011;51027;42.162;24.754;2023-02-01T04:02:53;11.77;;;3.67;;
64615;SDS011;51027;42.162;24.754;2023-02-01T04:05:19;12.70;;;4.57;;
64615;SDS011;51027;42.162;24.754;2023-02-01T04:07:45;12.07;;;4.90;;
64615;SDS011;51027;42.162;24.754;2023-02-01T04:10:11;9.48;;;3.60;;
64615;SDS011;51027;42.162;24.754;2023-02-01T04:12:37;13.02;;;5.15;;
64615;SDS011;51027;42.162;24.754;2023-02-01T04:15:06;14.13;;;5.07;;
64615;SDS011;51027;42.162;24.754;2023-02-01T04:17:32;14.07;;;4.93;;
64615;SDS011;51027;42.162;24.754;2023-02-01T04:19:58;14.32;;;5.05;;
64615;SDS011;51027;42.162;24.754;2023-02-01T04:22:23;13.30;;;4.80;;
64615;SDS011;51027;42.162;24.754;2023-02-01T04:24:48;14.88;;;5.47;;
64615;SDS011;51027;42.162;24.754;2023-02-01T04:27:14;10.48;;;4.03;;
64615;SDS011;51027;42.162;24.754;2023-02-01T04:29:39;14.27;;;4.80;;
64615;SDS011;51027;42.162;24.754;2023-02-01T04:32:05;6.70;;;2.58;;
64615;SDS011;51027;42.162;24.754;2023-02-01T04:34:31;14.50;;;4.90;;
64615;SDS011;51027;42.162;24.754;2023-02-01T04:36:56;18.30;;;5.07;;
64615;SDS011;51027;42.162;24.754;2023-02-01T04:39:22;13.88;;;4.90;;
64615;SDS011;51027;42.162;24.754;2023-02-01T04:41:47;14.75;;;5.35;;
64615;SDS011;51027;42.162;24.754;2023-02-01T04:44:14;14.43;;;5.45;;
64615;SDS011;51027;42.162;24.754;2023-02-01T04:46:41;14.85;;;5.88;;
64615;SDS011;51027;42.162;24.754;2023-02-01T04:49:08;14.93;;;5.20;;
64615;SDS011;51027;42.162;24.754;2023-02-01T04:51:34;13.68;;;4.55;;
64615;SDS011;51027;42.162;24.754;2023-02-01T04:53:59;16.38;;;5.13;;
64615;SDS011;51027;42.162;24.754;2023-02-01T04:56:25;17.67;;;6.28;;
64615;SDS011;51027;42.162;24.754;2023-02-01T04:58:50;14.32;;;5.15;;
64615;SDS011;51027;42.162;24.754;2023-02-01T05:01:16;12.93;;;4.65;;
64615;SDS011;51027;42.162;24.754;2023-02-01T05:03:41;10.77;;;3.63;;
64615;SDS011;51027;42.162;24.754;2023-02-01T05:06:06;13.85;;;4.93;;
64615;SDS011;51027;42.162;24.754;2023-02-01T05:08:32;11.88;;;4.18;;
64615;SDS011;51027;42.162;24.754;2023-02-01T05:10:58;11.60;;;4.18;;
64615;SDS011;51027;42.162;24.754;2023-02-01T05:13:24;11.13;;;4.00;;
64615;SDS011;51027;42.162;24.754;2023-02-01T05:16:08;14.43;;;4.80;;
64615;SDS011;51027;42.162;24.754;2023-02-01T05:18:34;16.27;;;5.28;;
64615;SDS011;51027;42.162;24.754;2023-02-01T05:20:59;13.85;;;4.78;;
64615;SDS011;51027;42.162;24.754;2023-02-01T05:23:24;12.55;;;4.72;;
64615;SDS011;51027;42.162;24.754;2023-02-01T05:25:50;13.05;;;4.47;;
64615;SDS011;51027;42.162;24.754;2023-02-01T05:28:15;13.85;;;4.05;;
64615;SDS011;51027;42.162;24.754;2023-02-01T05:30:41;14.13;;;5.20;;
64615;SDS011;51027;42.162;24.754;2023-02-01T05:33:06;10.10;;;3.95;;
64615;SDS011;51027;42.162;24.754;2023-02-01T05:35:32;15.40;;;5.38;;
64615;SDS011;51027;42.162;24.754;2023-02-01T05:37:57;13.90;;;3.88;;
64615;SDS011;51027;42.162;24.754;2023-02-01T05:40:22;12.82;;;4.63;;
64615;SDS011;51027;42.162;24.754;2023-02-01T05:42:48;11.82;;;4.30;;
64615;SDS011;51027;42.162;24.754;2023-02-01T05:45:13;12.57;;;4.43;;
64615;SDS011;51027;42.162;24.754;2023-02-01T05:47:39;8.57;;;3.65;;
64615;SDS011;51027;42.162;24.754;2023-02-01T05:50:04;11.77;;;4.50;;
64615;SDS011;51027;42.162;24.754;2023-02-01T05:52:31;12.10;;;4.03;;
64615;SDS011;51027;42.162;24.754;2023-02-01T05:54:57;8.50;;;3.28;;
64615;SDS011;51027;42.162;24.754;2023-02-01T05:57:22;12.95;;;4.13;;
64615;SDS011;51027;42.162;24.754;2023-02-01T05:59:48;11.23;;;3.60;;
64615;SDS011;51027;42.162;24.754;2023-02-01T06:02:14;16.50;;;4.90;;
64615;SDS011;51027;42.162;24.754;2023-02-01T06:04:40;13.38;;;3.97;;
64615;SDS011;51027;42.162;24.754;2023-02-01T06:07:06;13.00;;;4.45;;
64615;SDS011;51027;42.162;24.754;2023-02-01T06:09:34;17.63;;;7.85;;
64615;SDS011;51027;42.162;24.754;2023-02-01T06:12:00;12.80;;;4.53;;
64615;SDS011;51027;42.162;24.754;2023-02-01T06:14:26;18.20;;;6.90;;
64615;SDS011;51027;42.162;24.754;2023-02-01T06:16:52;15.90;;;4.82;;
64615;SDS011;51027;42.162;24.754;2023-02-01T06:19:19;14.82;;;4.70;;
64615;SDS011;51027;42.162;24.754;2023-02-01T06:21:44;15.20;;;4.93;;
64615;SDS011;51027;42.162;24.754;2023-02-01T06:24:10;12.85;;;4.10;;
64615;SDS011;51027;42.162;24.754;2023-02-01T06:26:36;11.88;;;4.45;;
64615;SDS011;51027;42.162;24.754;2023-02-01T06:29:02;12.23;;;4.05;;
64615;SDS011;51027;42.162;24.754;2023-02-01T06:31:27;12.60;;;4.43;;
64615;SDS011;51027;42.162;24.754;2023-02-01T06:33:53;9.82;;;3.80;;
64615;SDS011;51027;42.162;24.754;2023-02-01T06:36:18;12.98;;;4.18;;
64615;SDS011;51027;42.162;24.754;2023-02-01T06:38:46;13.73;;;4.55;;
64615;SDS011;51027;42.162;24.754;2023-02-01T06:41:12;15.75;;;5.13;;
64615;SDS011;51027;42.162;24.754;2023-02-01T06:43:38;15.52;;;5.13;;
64615;SDS011;51027;42.162;24.754;2023-02-01T06:46:05;18.60;;;7.45;;
64615;SDS011;51027;42.162;24.754;2023-02-01T06:48:32;16.30;;;4.93;;
64615;SDS011;51027;42.162;24.754;2023-02-01T06:50:58;20.70;;;5.55;;
64615;SDS011;51027;42.162;24.754;2023-02-01T06:53:24;13.88;;;5.53;;
64615;SDS011;51027;42.162;24.754;2023-02-01T06:55:53;19.35;;;6.72;;
64615;SDS011;51027;42.162;24.754;2023-02-01T06:58:22;11.90;;;4.35;;
64615;SDS011;51027;42.162;24.754;2023-02-01T07:00:48;15.88;;;4.97;;
64615;SDS011;51027;42.162;24.754;2023-02-01T07:03:14;14.05;;;4.57;;
64615;SDS011;51027;42.162;24.754;2023-02-01T07:05:39;13.05;;;4.32;;
64615;SDS011;51027;42.162;24.754;2023-02-01T07:08:05;15.10;;;4.57;;
64615;SDS011;51027;42.162;24.754;2023-02-01T07:10:30;13.02;;;4.80;;
64615;SDS011;51027;42.162;24.754;2023-02-01T07:12:58;19.63;;;6.22;;
64615;SDS011;51027;42.162;24.754;2023-02-01T07:15:24;17.38;;;6.38;;
64615;SDS011;51027;42.162;24.754;2023-02-01T07:17:50;15.75;;;5.38;;
64615;SDS011;51027;42.162;24.754;2023-02-01T07:20:16;15.93;;;5.60;;
64615;SDS011;51027;42.162;24.754;2023-02-01T07:22:41;11.70;;;3.90;;
64615;SDS011;51027;42.162;24.754;2023-02-01T07:25:07;10.13;;;3.72;;
64615;SDS011;51027;42.162;24.754;2023-02-01T07:27:36;18.15;;;6.88;;
64615;SDS011;51027;42.162;24.754;2023-02-01T07:30:02;19.20;;;5.65;;
64615;SDS011;51027;42.162;24.754;2023-02-01T07:32:31;19.20;;;6.57;;
64615;SDS011;51027;42.162;24.754;2023-02-01T07:34:57;14.63;;;5.22;;
64615;SDS011;51027;42.162;24.754;2023-02-01T07:37:24;14.02;;;4.70;;
64615;SDS011;51027;42.162;24.754;2023-02-01T07:39:50;11.63;;;3.85;;
64615;SDS011;51027;42.162;24.754;2023-02-01T07:42:16;12.98;;;4.43;;
64615;SDS011;51027;42.162;24.754;2023-02-01T07:44:42;13.15;;;4.47;;
64615;SDS011;51027;42.162;24.754;2023-02-01T07:47:07;15.13;;;4.50;;
64615;SDS011;51027;42.162;24.754;2023-02-01T07:49:33;12.68;;;4.05;;
64615;SDS011;51027;42.162;24.754;2023-02-01T07:51:58;14.45;;;4.25;;
64615;SDS011;51027;42.162;24.754;2023-02-01T07:54:23;16.65;;;4.40;;
64615;SDS011;51027;42.162;24.754;2023-02-01T07:56:49;13.52;;;3.75;;
64615;SDS011;51027;42.162;24.754;2023-02-01T07:59:14;14.85;;;3.92;;
64615;SDS011;51027;42.162;24.754;2023-02-01T08:01:40;11.90;;;3.83;;
64615;SDS011;51027;42.162;24.754;2023-02-01T08:04:07;13.98;;;4.35;;
64615;SDS011;51027;42.162;24.754;2023-02-01T08:06:35;12.07;;;4.43;;
64615;SDS011;51027;42.162;24.754;2023-02-01T08:09:01;14.98;;;4.43;;
64615;SDS011;51027;42.162;24.754;2023-02-01T08:11:28;13.82;;;4.60;;
64615;SDS011;51027;42.162;24.754;2023-02-01T08:13:54;13.77;;;4.45;;
64615;SDS011;51027;42.162;24.754;2023-02-01T08:16:20;10.85;;;4.05;;
64615;SDS011;51027;42.162;24.754;2023-02-01T08:18:46;15.55;;;4.90;;
64615;SDS011;51027;42.162;24.754;2023-02-01T08:21:13;16.10;;;4.90;;
64615;SDS011;51027;42.162;24.754;2023-02-01T08:23:40;13.00;;;4.30;;
64615;SDS011;51027;42.162;24.754;2023-02-01T08:28:38;16.73;;;5.95;;
64615;SDS011;51027;42.162;24.754;2023-02-01T08:31:05;12.50;;;4.15;;
64615;SDS011;51027;42.162;24.754;2023-02-01T08:33:33;13.48;;;4.95;;
64615;SDS011;51027;42.162;24.754;2023-02-01T08:36:02;14.80;;;5.55;;
64615;SDS011;51027;42.162;24.754;2023-02-01T08:38:29;15.80;;;4.78;;
64615;SDS011;51027;42.162;24.754;2023-02-01T08:40:54;14.35;;;4.85;;
64615;SDS011;51027;42.162;24.754;2023-02-01T08:43:20;11.77;;;4.35;;
64615;SDS011;51027;42.162;24.754;2023-02-01T08:45:45;15.07;;;4.80;;
64615;SDS011;51027;42.162;24.754;2023-02-01T08:48:11;18.35;;;4.82;;
64615;SDS011;51027;42.162;24.754;2023-02-01T08:50:36;14.68;;;5.35;;
64615;SDS011;51027;42.162;24.754;2023-02-01T08:53:02;14.77;;;4.95;;
64615;SDS011;51027;42.162;24.754;2023-02-01T08:55:27;17.88;;;5.38;;
64615;SDS011;51027;42.162;24.754;2023-02-01T08:57:53;15.00;;;5.25;;
64615;SDS011;51027;42.162;24.754;2023-02-01T09:00:18;16.23;;;5.38;;
64615;SDS011;51027;42.162;24.754;2023-02-01T09:02:44;16.67;;;5.40;;
64615;SDS011;51027;42.162;24.754;2023-02-01T09:05:10;9.68;;;4.25;;
64615;SDS011;51027;42.162;24.754;2023-02-01T09:07:36;15.77;;;5.57;;
64615;SDS011;51027;42.162;24.754;2023-02-01T09:10:02;17.83;;;5.57;;
64615;SDS011;51027;42.162;24.754;2023-02-01T09:12:28;12.77;;;4.38;;
64615;SDS011;51027;42.162;24.754;2023-02-01T09:14:57;14.95;;;4.53;;
64615;SDS011;51027;42.162;24.754;2023-02-01T09:17:25;9.90;;;4.15;;
64615;SDS011;51027;42.162;24.754;2023-02-01T09:19:51;16.70;;;4.82;;
64615;SDS011;51027;42.162;24.754;2023-02-01T09:22:16;13.15;;;4.38;;
64615;SDS011;51027;42.162;24.754;2023-02-01T09:24:42;13.55;;;4.65;;
64615;SDS011;51027;42.162;24.754;2023-02-01T09:27:08;13.15;;;4.50;;
64615;SDS011;51027;42.162;24.754;2023-02-01T09:29:33;12.52;;;4.50;;
64615;SDS011;51027;42.162;24.754;2023-02-01T09:31:58;12.32;;;4.03;;
64615;SDS011;51027;42.162;24.754;2023-02-01T09:34:24;10.38;;;3.70;;
64615;SDS011;51027;42.162;24.754;2023-02-01T09:36:49;10.90;;;3.55;;
64615;SDS011;51027;42.162;24.754;2023-02-01T09:39:15;10.77;;;3.90;;
64615;SDS011;51027;42.162;24.754;2023-02-01T09:47:31;6.88;;;3.00;;
64615;SDS011;51027;42.162;24.754;2023-02-01T09:49:59;15.57;;;3.83;;
64615;SDS011;51027;42.162;24.754;2023-02-01T09:52:34;15.85;;;4.80;;
64615;SDS011;51027;42.162;24.754;2023-02-01T09:55:13;8.52;;;3.17;;
64615;SDS011;51027;42.162;24.754;2023-02-01T10:00:25;10.25;;;3.33;;
64615;SDS011;51027;42.162;24.754;2023-02-01T10:02:54;8.93;;;2.85;;
64615;SDS011;51027;42.162;24.754;2023-02-01T10:05:30;6.70;;;2.85;;
64615;SDS011;51027;42.162;24.754;2023-02-01T10:11:11;8.18;;;2.75;;
64615;SDS011;51027;42.162;24.754;2023-02-01T10:16:40;9.35;;;2.60;;
64615;SDS011;51027;42.162;24.754;2023-02-01T10:21:58;12.05;;;3.67;;
64615;SDS011;51027;42.162;24.754;2023-02-01T10:24:47;10.50;;;3.53;;
64615;SDS011;51027;42.162;24.754;2023-02-01T10:27:35;6.35;;;2.88;;
64615;SDS011;51027;42.162;24.754;2023-02-01T10:30:22;13.18;;;3.55;;
64615;SDS011;51027;42.162;24.754;2023-02-01T10:32:55;7.82;;;2.72;;
64615;SDS011;51027;42.162;24.754;2023-02-01T10:35:24;7.93;;;3.00;;
64615;SDS011;51027;42.162;24.754;2023-02-01T10:37:53;11.52;;;3.75;;
64615;SDS011;51027;42.162;24.754;2023-02-01T10:40:22;11.43;;;3.47;;
64615;SDS011;51027;42.162;24.754;2023-02-01T10:42:50;12.03;;;3.20;;
64615;SDS011;51027;42.162;24.754;2023-02-01T10:45:21;11.13;;;3.55;;
64615;SDS011;51027;42.162;24.754;2023-02-01T10:47:50;9.60;;;2.88;;
64615;SDS011;51027;42.162;24.754;2023-02-01T10:53:00;9.40;;;3.28;;
64615;SDS011;51027;42.162;24.754;2023-02-01T10:55:33;12.52;;;3.80;;
64615;SDS011;51027;42.162;24.754;2023-02-01T10:58:48;9.40;;;3.42;;
64615;SDS011;51027;42.162;24.754;2023-02-01T11:00:53;7.78;;;3.03;;
64615;SDS011;51027;42.162;24.754;2023-02-01T11:03:28;10.05;;;3.38;;
64615;SDS011;51027;42.162;24.754;2023-02-01T11:05:57;9.98;;;2.72;;
64615;SDS011;51027;42.162;24.754;2023-02-01T11:08:22;6.30;;;2.53;;
64615;SDS011;51027;42.162;24.754;2023-02-01T11:10:49;9.65;;;3.17;;
64615;SDS011;51027;42.162;24.754;2023-02-01T11:13:24;10.05;;;3.30;;
64615;SDS011;51027;42.162;24.754;2023-02-01T11:15:58;9.82;;;3.28;;
64615;SDS011;51027;42.162;24.754;2023-02-01T11:18:27;9.60;;;3.47;;
64615;SDS011;51027;42.162;24.754;2023-02-01T11:20:54;9.02;;;3.00;;
64615;SDS011;51027;42.162;24.754;2023-02-01T11:23:27;10.57;;;3.42;;
64615;SDS011;51027;42.162;24.754;2023-02-01T11:28:26;6.60;;;2.35;;
64615;SDS011;51027;42.162;24.754;2023-02-01T11:30:56;6.90;;;2.72;;
64615;SDS011;51027;42.162;24.754;2023-02-01T11:33:25;4.93;;;2.50;;
64615;SDS011;51027;42.162;24.754;2023-02-01T11:35:55;34.58;;;4.88;;
64615;SDS011;51027;42.162;24.754;2023-02-01T11:38:27;9.88;;;3.80;;
64615;SDS011;51027;42.162;24.754;2023-02-01T11:41:13;11.70;;;6.57;;
64615;SDS011;51027;42.162;24.754;2023-02-01T11:46:19;10.75;;;3.15;;
64615;SDS011;51027;42.162;24.754;2023-02-01T11:48:50;5.07;;;2.35;;
64615;SDS011;51027;42.162;24.754;2023-02-01T12:10:35;11.43;;;3.00;;
64615;SDS011;51027;42.162;24.754;2023-02-01T12:41:42;10.32;;;2.92;;
64615;SDS011;51027;42.162;24.754;2023-02-01T12:43:42;9.05;;;2.35;;
64615;SDS011;51027;42.162;24.754;2023-02-01T12:46:26;7.88;;;2.45;;
64615;SDS011;51027;42.162;24.754;2023-02-01T12:48:59;7.60;;;2.65;;
64615;SDS011;51027;42.162;24.754;2023-02-01T12:51:38;4.60;;;2.50;;
64615;SDS011;51027;42.162;24.754;2023-02-01T12:56:52;4.53;;;2.08;;
64615;SDS011;51027;42.162;24.754;2023-02-01T12:59:25;4.57;;;2.30;;
64615;SDS011;51027;42.162;24.754;2023-02-01T13:05:05;3.05;;;1.67;;
64615;SDS011;51027;42.162;24.754;2023-02-01T13:07:45;4.78;;;2.60;;
64615;SDS011;51027;42.162;24.754;2023-02-01T13:15:37;9.85;;;2.88;;
64615;SDS011;51027;42.162;24.754;2023-02-01T13:18:09;11.48;;;3.17;;
64615;SDS011;51027;42.162;24.754;2023-02-01T13:20:47;8.20;;;2.78;;
64615;SDS011;51027;42.162;24.754;2023-02-01T13:25:57;6.10;;;2.15;;
64615;SDS011;51027;42.162;24.754;2023-02-01T13:28:28;8.85;;;3.28;;
64615;SDS011;51027;42.162;24.754;2023-02-01T13:36:54;7.45;;;2.50;;
64615;SDS011;51027;42.162;24.754;2023-02-01T13:42:50;8.57;;;3.05;;
64615;SDS011;51027;42.162;24.754;2023-02-01T13:45:23;8.73;;;3.10;;
64615;SDS011;51027;42.162;24.754;2023-02-01T13:47:53;10.68;;;2.95;;
64615;SDS011;51027;42.162;24.754;2023-02-01T13:50:32;8.80;;;3.47;;
64615;SDS011;51027;42.162;24.754;2023-02-01T13:55:38;9.43;;;2.80;;
64615;SDS011;51027;42.162;24.754;2023-02-01T14:00:39;10.73;;;3.10;;
64615;SDS011;51027;42.162;24.754;2023-02-01T14:13:35;8.32;;;2.70;;
64615;SDS011;51027;42.162;24.754;2023-02-01T14:23:47;9.25;;;3.22;;
64615;SDS011;51027;42.162;24.754;2023-02-01T14:39:29;9.25;;;3.05;;
64615;SDS011;51027;42.162;24.754;2023-02-01T14:42:05;7.90;;;2.70;;
64615;SDS011;51027;42.162;24.754;2023-02-01T14:44:55;8.57;;;2.80;;
64615;SDS011;51027;42.162;24.754;2023-02-01T14:47:41;7.95;;;2.83;;
64615;SDS011;51027;42.162;24.754;2023-02-01T14:52:38;8.00;;;2.88;;
64615;SDS011;51027;42.162;24.754;2023-02-01T14:55:11;5.45;;;2.40;;
64615;SDS011;51027;42.162;24.754;2023-02-01T14:57:39;6.55;;;2.63;;
64615;SDS011;51027;42.162;24.754;2023-02-01T15:00:14;10.85;;;3.72;;
64615;SDS011;51027;42.162;24.754;2023-02-01T15:02:44;10.38;;;3.42;;
64615;SDS011;51027;42.162;24.754;2023-02-01T15:05:52;14.45;;;3.42;;
64615;SDS011;51027;42.162;24.754;2023-02-01T15:08:14;12.57;;;3.40;;
64615;SDS011;51027;42.162;24.754;2023-02-01T15:10:44;14.60;;;3.97;;
64615;SDS011;51027;42.162;24.754;2023-02-01T15:13:33;13.13;;;3.30;;
64615;SDS011;51027;42.162;24.754;2023-02-01T15:16:02;7.32;;;2.75;;
64615;SDS011;51027;42.162;24.754;2023-02-01T15:18:38;12.82;;;4.03;;
64615;SDS011;51027;42.162;24.754;2023-02-01T15:21:05;16.58;;;4.90;;
64615;SDS011;51027;42.162;24.754;2023-02-01T15:23:39;14.07;;;3.65;;
64615;SDS011;51027;42.162;24.754;2023-02-01T15:26:04;10.90;;;3.50;;
64615;SDS011;51027;42.162;24.754;2023-02-01T15:28:30;14.57;;;3.92;;
64615;SDS011;51027;42.162;24.754;2023-02-01T15:31:00;15.13;;;4.47;;
64615;SDS011;51027;42.162;24.754;2023-02-01T15:33:30;13.63;;;4.95;;
64615;SDS011;51027;42.162;24.754;2023-02-01T15:38:37;15.30;;;5.03;;
64615;SDS011;51027;42.162;24.754;2023-02-01T15:41:20;11.63;;;3.45;;
64615;SDS011;51027;42.162;24.754;2023-02-01T15:46:24;16.90;;;4.85;;
64615;SDS011;51027;42.162;24.754;2023-02-01T15:48:57;11.93;;;4.28;;
64615;SDS011;51027;42.162;24.754;2023-02-01T15:51:27;13.98;;;4.18;;
64615;SDS011;51027;42.162;24.754;2023-02-01T15:56:22;13.82;;;5.28;;
64615;SDS011;51027;42.162;24.754;2023-02-01T15:58:51;17.23;;;5.25;;
64615;SDS011;51027;42.162;24.754;2023-02-01T16:01:20;18.13;;;6.43;;
64615;SDS011;51027;42.162;24.754;2023-02-01T16:03:45;20.15;;;7.13;;
64615;SDS011;51027;42.162;24.754;2023-02-01T16:08:48;15.55;;;5.03;;
64615;SDS011;51027;42.162;24.754;2023-02-01T16:11:28;17.90;;;6.05;;
64615;SDS011;51027;42.162;24.754;2023-02-01T16:13:56;17.85;;;5.75;;
64615;SDS011;51027;42.162;24.754;2023-02-01T16:16:23;15.70;;;5.43;;
64615;SDS011;51027;42.162;24.754;2023-02-01T16:18:50;14.00;;;4.20;;
64615;SDS011;51027;42.162;24.754;2023-02-01T16:21:15;14.63;;;4.75;;
64615;SDS011;51027;42.162;24.754;2023-02-01T16:23:40;13.32;;;4.45;;
64615;SDS011;51027;42.162;24.754;2023-02-01T16:26:06;15.32;;;5.32;;
64615;SDS011;51027;42.162;24.754;2023-02-01T16:28:32;13.80;;;3.95;;
64615;SDS011;51027;42.162;24.754;2023-02-01T16:30:58;13.80;;;4.28;;
64615;SDS011;51027;42.162;24.754;2023-02-01T16:33:25;12.93;;;4.20;;
64615;SDS011;51027;42.162;24.754;2023-02-01T16:35:51;16.73;;;5.43;;
64615;SDS011;51027;42.162;24.754;2023-02-01T16:38:20;17.60;;;5.90;;
64615;SDS011;51027;42.162;24.754;2023-02-01T16:40:47;19.48;;;6.60;;
64615;SDS011;51027;42.162;24.754;2023-02-01T16:43:18;15.00;;;5.55;;
64615;SDS011;51027;42.162;24.754;2023-02-01T16:45:46;15.32;;;5.28;;
64615;SDS011;51027;42.162;24.754;2023-02-01T16:48:26;16.23;;;5.55;;
64615;SDS011;51027;42.162;24.754;2023-02-01T16:50:55;9.15;;;3.72;;
64615;SDS011;51027;42.162;24.754;2023-02-01T16:53:22;15.43;;;5.57;;
64615;SDS011;51027;42.162;24.754;2023-02-01T16:55:49;15.07;;;5.18;;
64615;SDS011;51027;42.162;24.754;2023-02-01T16:58:17;17.60;;;5.38;;
64615;SDS011;51027;42.162;24.754;2023-02-01T17:00:44;18.77;;;5.95;;
64615;SDS011;51027;42.162;24.754;2023-02-01T17:03:11;15.95;;;5.00;;
64615;SDS011;51027;42.162;24.754;2023-02-01T17:05:41;15.20;;;5.30;;
64615;SDS011;51027;42.162;24.754;2023-02-01T17:08:11;14.10;;;3.83;;
64615;SDS011;51027;42.162;24.754;2023-02-01T17:10:40;14.00;;;4.10;;
64615;SDS011;51027;42.162;24.754;2023-02-01T17:13:08;14.63;;;4.80;;
64615;SDS011;51027;42.162;24.754;2023-02-01T17:15:37;13.95;;;4.45;;
64615;SDS011;51027;42.162;24.754;2023-02-01T17:18:03;17.30;;;6.20;;
64615;SDS011;51027;42.162;24.754;2023-02-01T17:20:31;23.17;;;7.47;;
64615;SDS011;51027;42.162;24.754;2023-02-01T17:22:57;19.58;;;7.10;;
64615;SDS011;51027;42.162;24.754;2023-02-01T17:25:22;20.90;;;7.50;;
64615;SDS011;51027;42.162;24.754;2023-02-01T17:27:49;21.52;;;6.93;;
64615;SDS011;51027;42.162;24.754;2023-02-01T17:30:15;16.92;;;5.18;;
64615;SDS011;51027;42.162;24.754;2023-02-01T17:32:40;14.55;;;4.50;;
64615;SDS011;51027;42.162;24.754;2023-02-01T17:35:15;18.35;;;5.63;;